sensor_id;sensor_type;location;lat;lon;timestamp;P1;durP1;ratioP1;P2;durP2;ratioP2
47287;SDS011;33020;53.008;13.558;2023-04-01T00:01:29;6.43;;;3.47;;
47287;SDS011;33020;53.008;13.558;2023-04-01T00:03:56;6.00;;;3.97;;
47287;SDS011;33020;53.008;13.558;2023-04-01T00:06:23;7.23;;;4.27;;
47287;SDS011;33020;53.008;13.558;2023-04-01T00:08:53;5.90;;;3.87;;
47287;SDS011;33020;53.008;13.558;2023-04-01T00:11:20;5.47;;;3.83;;
47287;SDS011;33020;53.008;13.558;2023-04-01T00:13:50;6.90;;;4.20;;
47287;SDS011;33020;53.008;13.558;2023-04-01T00:16:19;4.97;;;3.03;;
47287;SDS011;33020;53.008;13.558;2023-04-01T00:18:48;5.97;;;3.20;;
47287;SDS011;33020;53.008;13.558;2023-04-01T00:21:16;5.33;;;2.73;;
47287;SDS011;33020;53.008;13.558;2023-04-01T00:23:43;4.20;;;2.77;;
47287;SDS011;33020;53.008;13.558;2023-04-01T00:26:10;5.38;;;3.05;;
47287;SDS011;33020;53.008;13.558;2023-04-01T00:28:38;4.97;;;3.20;;
47287;SDS011;33020;53.008;13.558;2023-04-01T00:31:06;5.13;;;3.10;;
47287;SDS011;33020;53.008;13.558;2023-04-01T00:33:34;5.93;;;3.37;;
47287;SDS011;33020;53.008;13.558;2023-04-01T00:36:11;6.10;;;3.23;;
47287;SDS011;33020;53.008;13.558;2023-04-01T00:38:38;5.50;;;3.30;;
47287;SDS011;33020;53.008;13.558;2023-04-01T00:41:05;4.93;;;2.80;;
47287;SDS011;33020;53.008;13.558;2023-04-01T00:43:32;6.37;;;3.77;;
47287;SDS011;33020;53.008;13.558;2023-04-01T00:46:00;5.43;;;3.40;;
47287;SDS011;33020;53.008;13.558;2023-04-01T00:48:28;4.80;;;3.17;;
47287;SDS011;33020;53.008;13.558;2023-04-01T00:50:59;5.82;;;3.95;;
47287;SDS011;33020;53.008;13.558;2023-04-01T00:53:28;7.40;;;3.97;;
47287;SDS011;33020;53.008;13.558;2023-04-01T00:56:07;7.13;;;3.97;;
47287;SDS011;33020;53.008;13.558;2023-04-01T00:58:39;5.00;;;3.33;;
47287;SDS011;33020;53.008;13.558;2023-04-01T01:01:08;5.93;;;3.73;;
47287;SDS011;33020;53.008;13.558;2023-04-01T01:03:36;6.93;;;3.70;;
47287;SDS011;33020;53.008;13.558;2023-04-01T01:09:00;6.73;;;3.80;;
47287;SDS011;33020;53.008;13.558;2023-04-01T01:11:42;6.50;;;3.78;;
47287;SDS011;33020;53.008;13.558;2023-04-01T01:14:33;7.03;;;4.60;;
47287;SDS011;33020;53.008;13.558;2023-04-01T01:17:19;8.30;;;3.57;;
47287;SDS011;33020;53.008;13.558;2023-04-01T01:31:34;6.28;;;3.67;;
47287;SDS011;33020;53.008;13.558;2023-04-01T01:34:13;5.83;;;4.20;;
47287;SDS011;33020;53.008;13.558;2023-04-01T01:37:03;5.40;;;3.80;;
47287;SDS011;33020;53.008;13.558;2023-04-01T01:39:41;8.32;;;3.92;;
47287;SDS011;33020;53.008;13.558;2023-04-01T01:42:11;7.30;;;3.73;;
47287;SDS011;33020;53.008;13.558;2023-04-01T01:44:39;6.37;;;4.10;;
47287;SDS011;33020;53.008;13.558;2023-04-01T01:47:06;9.10;;;4.60;;
47287;SDS011;33020;53.008;13.558;2023-04-01T01:49:34;6.30;;;3.50;;
47287;SDS011;33020;53.008;13.558;2023-04-01T01:52:02;6.90;;;4.07;;
47287;SDS011;33020;53.008;13.558;2023-04-01T01:54:29;7.43;;;4.23;;
47287;SDS011;33020;53.008;13.558;2023-04-01T01:57:00;6.47;;;3.43;;
47287;SDS011;33020;53.008;13.558;2023-04-01T01:59:31;8.43;;;5.13;;
47287;SDS011;33020;53.008;13.558;2023-04-01T02:02:00;7.47;;;3.95;;
47287;SDS011;33020;53.008;13.558;2023-04-01T02:04:34;7.17;;;3.60;;
47287;SDS011;33020;53.008;13.558;2023-04-01T02:07:03;5.93;;;3.73;;
47287;SDS011;33020;53.008;13.558;2023-04-01T02:09:33;5.90;;;3.70;;
47287;SDS011;33020;53.008;13.558;2023-04-01T02:12:02;6.47;;;3.73;;
47287;SDS011;33020;53.008;13.558;2023-04-01T02:17:22;8.77;;;4.70;;
47287;SDS011;33020;53.008;13.558;2023-04-01T02:19:56;7.60;;;4.10;;
47287;SDS011;33020;53.008;13.558;2023-04-01T02:22:28;10.02;;;4.30;;
47287;SDS011;33020;53.008;13.558;2023-04-01T02:24:59;8.30;;;4.37;;
47287;SDS011;33020;53.008;13.558;2023-04-01T02:27:29;8.23;;;4.38;;
47287;SDS011;33020;53.008;13.558;2023-04-01T02:29:56;7.83;;;4.40;;
47287;SDS011;33020;53.008;13.558;2023-04-01T02:32:24;8.53;;;4.30;;
47287;SDS011;33020;53.008;13.558;2023-04-01T02:34:51;8.60;;;4.73;;
47287;SDS011;33020;53.008;13.558;2023-04-01T02:37:18;7.60;;;3.80;;
47287;SDS011;33020;53.008;13.558;2023-04-01T02:39:45;8.45;;;3.90;;
47287;SDS011;33020;53.008;13.558;2023-04-01T02:42:12;6.23;;;3.60;;
47287;SDS011;33020;53.008;13.558;2023-04-01T02:44:39;6.50;;;3.83;;
47287;SDS011;33020;53.008;13.558;2023-04-01T02:47:06;8.23;;;4.67;;
47287;SDS011;33020;53.008;13.558;2023-04-01T02:49:33;7.82;;;4.43;;
47287;SDS011;33020;53.008;13.558;2023-04-01T02:51:59;7.13;;;4.40;;
47287;SDS011;33020;53.008;13.558;2023-04-01T02:54:26;7.07;;;3.87;;
47287;SDS011;33020;53.008;13.558;2023-04-01T02:56:52;8.83;;;4.63;;
47287;SDS011;33020;53.008;13.558;2023-04-01T02:59:19;8.70;;;4.90;;
47287;SDS011;33020;53.008;13.558;2023-04-01T03:01:46;10.23;;;4.10;;
47287;SDS011;33020;53.008;13.558;2023-04-01T03:04:13;9.50;;;4.82;;
47287;SDS011;33020;53.008;13.558;2023-04-01T03:06:39;8.33;;;4.67;;
47287;SDS011;33020;53.008;13.558;2023-04-01T03:09:06;10.47;;;5.20;;
47287;SDS011;33020;53.008;13.558;2023-04-01T03:11:32;9.02;;;5.35;;
47287;SDS011;33020;53.008;13.558;2023-04-01T03:13:59;8.93;;;5.03;;
47287;SDS011;33020;53.008;13.558;2023-04-01T03:16:26;10.70;;;6.20;;
47287;SDS011;33020;53.008;13.558;2023-04-01T03:18:53;13.63;;;6.27;;
47287;SDS011;33020;53.008;13.558;2023-04-01T03:21:22;12.70;;;6.50;;
47287;SDS011;33020;53.008;13.558;2023-04-01T03:23:50;11.20;;;5.90;;
47287;SDS011;33020;53.008;13.558;2023-04-01T03:26:16;11.13;;;6.43;;
47287;SDS011;33020;53.008;13.558;2023-04-01T03:28:44;12.83;;;6.20;;
47287;SDS011;33020;53.008;13.558;2023-04-01T03:31:11;10.80;;;6.60;;
47287;SDS011;33020;53.008;13.558;2023-04-01T03:33:37;11.50;;;6.27;;
47287;SDS011;33020;53.008;13.558;2023-04-01T03:36:04;12.40;;;7.70;;
47287;SDS011;33020;53.008;13.558;2023-04-01T03:38:35;12.40;;;6.87;;
47287;SDS011;33020;53.008;13.558;2023-04-01T03:41:02;14.87;;;8.00;;
47287;SDS011;33020;53.008;13.558;2023-04-01T03:43:29;12.97;;;7.37;;
47287;SDS011;33020;53.008;13.558;2023-04-01T03:45:56;14.77;;;7.47;;
47287;SDS011;33020;53.008;13.558;2023-04-01T03:48:26;14.63;;;7.87;;
47287;SDS011;33020;53.008;13.558;2023-04-01T03:50:53;12.67;;;7.47;;
47287;SDS011;33020;53.008;13.558;2023-04-01T03:53:19;13.53;;;7.57;;
47287;SDS011;33020;53.008;13.558;2023-04-01T03:55:46;14.70;;;7.90;;
47287;SDS011;33020;53.008;13.558;2023-04-01T03:58:13;12.97;;;7.57;;
47287;SDS011;33020;53.008;13.558;2023-04-01T04:00:40;14.43;;;8.73;;
47287;SDS011;33020;53.008;13.558;2023-04-01T04:03:07;13.47;;;8.53;;
47287;SDS011;33020;53.008;13.558;2023-04-01T04:05:34;12.87;;;7.77;;
47287;SDS011;33020;53.008;13.558;2023-04-01T04:08:01;12.87;;;8.63;;
47287;SDS011;33020;53.008;13.558;2023-04-01T04:10:28;11.33;;;7.33;;
47287;SDS011;33020;53.008;13.558;2023-04-01T04:12:55;10.17;;;6.47;;
47287;SDS011;33020;53.008;13.558;2023-04-01T04:15:22;11.43;;;6.80;;
47287;SDS011;33020;53.008;13.558;2023-04-01T04:17:49;11.50;;;6.40;;
47287;SDS011;33020;53.008;13.558;2023-04-01T04:20:16;11.37;;;7.17;;
47287;SDS011;33020;53.008;13.558;2023-04-01T04:22:46;10.00;;;6.37;;
47287;SDS011;33020;53.008;13.558;2023-04-01T04:25:12;11.93;;;6.40;;
47287;SDS011;33020;53.008;13.558;2023-04-01T04:27:39;10.03;;;5.80;;
47287;SDS011;33020;53.008;13.558;2023-04-01T04:30:06;11.00;;;5.90;;
47287;SDS011;33020;53.008;13.558;2023-04-01T04:32:34;11.30;;;5.97;;
47287;SDS011;33020;53.008;13.558;2023-04-01T04:35:01;11.87;;;6.67;;
47287;SDS011;33020;53.008;13.558;2023-04-01T04:37:27;10.20;;;5.87;;
47287;SDS011;33020;53.008;13.558;2023-04-01T04:39:54;9.53;;;5.67;;
47287;SDS011;33020;53.008;13.558;2023-04-01T04:42:21;13.07;;;5.63;;
47287;SDS011;33020;53.008;13.558;2023-04-01T04:44:47;10.23;;;5.70;;
47287;SDS011;33020;53.008;13.558;2023-04-01T04:47:14;9.10;;;5.90;;
47287;SDS011;33020;53.008;13.558;2023-04-01T04:49:41;10.47;;;5.07;;
47287;SDS011;33020;53.008;13.558;2023-04-01T04:52:07;10.33;;;5.67;;
47287;SDS011;33020;53.008;13.558;2023-04-01T04:54:34;9.47;;;6.10;;
47287;SDS011;33020;53.008;13.558;2023-04-01T04:57:01;11.03;;;5.90;;
47287;SDS011;33020;53.008;13.558;2023-04-01T04:59:28;9.20;;;5.93;;
47287;SDS011;33020;53.008;13.558;2023-04-01T05:01:54;10.50;;;6.50;;
47287;SDS011;33020;53.008;13.558;2023-04-01T05:04:21;10.20;;;5.33;;
47287;SDS011;33020;53.008;13.558;2023-04-01T05:06:48;9.47;;;5.43;;
47287;SDS011;33020;53.008;13.558;2023-04-01T05:09:15;9.03;;;5.67;;
47287;SDS011;33020;53.008;13.558;2023-04-01T05:11:42;9.27;;;5.50;;
47287;SDS011;33020;53.008;13.558;2023-04-01T05:14:15;10.40;;;5.70;;
47287;SDS011;33020;53.008;13.558;2023-04-01T05:16:42;10.30;;;5.47;;
47287;SDS011;33020;53.008;13.558;2023-04-01T05:19:08;10.20;;;5.77;;
47287;SDS011;33020;53.008;13.558;2023-04-01T05:21:35;9.47;;;5.73;;
47287;SDS011;33020;53.008;13.558;2023-04-01T05:24:02;11.73;;;5.87;;
47287;SDS011;33020;53.008;13.558;2023-04-01T05:26:28;9.43;;;5.50;;
47287;SDS011;33020;53.008;13.558;2023-04-01T05:28:55;9.47;;;5.07;;
47287;SDS011;33020;53.008;13.558;2023-04-01T05:31:22;10.83;;;5.53;;
47287;SDS011;33020;53.008;13.558;2023-04-01T05:33:50;8.37;;;5.50;;
47287;SDS011;33020;53.008;13.558;2023-04-01T05:36:17;9.73;;;6.10;;
47287;SDS011;33020;53.008;13.558;2023-04-01T05:38:44;7.43;;;5.10;;
47287;SDS011;33020;53.008;13.558;2023-04-01T05:41:12;10.97;;;5.90;;
47287;SDS011;33020;53.008;13.558;2023-04-01T05:43:39;9.17;;;6.43;;
47287;SDS011;33020;53.008;13.558;2023-04-01T05:46:06;6.97;;;4.93;;
47287;SDS011;33020;53.008;13.558;2023-04-01T05:48:33;9.73;;;5.30;;
47287;SDS011;33020;53.008;13.558;2023-04-01T05:51:04;10.13;;;5.83;;
47287;SDS011;33020;53.008;13.558;2023-04-01T05:53:31;9.43;;;5.20;;
47287;SDS011;33020;53.008;13.558;2023-04-01T05:56:01;9.50;;;5.07;;
47287;SDS011;33020;53.008;13.558;2023-04-01T05:58:29;8.77;;;4.67;;
47287;SDS011;33020;53.008;13.558;2023-04-01T06:01:29;8.60;;;5.07;;
47287;SDS011;33020;53.008;13.558;2023-04-01T06:03:48;7.00;;;4.37;;
47287;SDS011;33020;53.008;13.558;2023-04-01T06:06:18;7.63;;;4.50;;
47287;SDS011;33020;53.008;13.558;2023-04-01T06:08:51;5.03;;;3.77;;
47287;SDS011;33020;53.008;13.558;2023-04-01T06:11:20;9.37;;;5.13;;
47287;SDS011;33020;53.008;13.558;2023-04-01T06:17:00;5.77;;;4.13;;
47287;SDS011;33020;53.008;13.558;2023-04-01T06:19:36;8.03;;;4.40;;
47287;SDS011;33020;53.008;13.558;2023-04-01T06:27:54;7.30;;;4.37;;
47287;SDS011;33020;53.008;13.558;2023-04-01T06:46:43;8.07;;;4.83;;
47287;SDS011;33020;53.008;13.558;2023-04-01T06:51:59;8.20;;;4.20;;
47287;SDS011;33020;53.008;13.558;2023-04-01T06:57:03;6.70;;;4.30;;
47287;SDS011;33020;53.008;13.558;2023-04-01T06:59:36;7.17;;;4.27;;
47287;SDS011;33020;53.008;13.558;2023-04-01T07:04:46;6.43;;;4.20;;
47287;SDS011;33020;53.008;13.558;2023-04-01T07:10:31;6.63;;;4.03;;
47287;SDS011;33020;53.008;13.558;2023-04-01T07:13:07;6.37;;;4.10;;
47287;SDS011;33020;53.008;13.558;2023-04-01T07:15:40;6.80;;;4.60;;
47287;SDS011;33020;53.008;13.558;2023-04-01T07:18:19;6.53;;;4.23;;
47287;SDS011;33020;53.008;13.558;2023-04-01T07:20:50;5.53;;;3.70;;
47287;SDS011;33020;53.008;13.558;2023-04-01T07:23:22;6.20;;;3.83;;
47287;SDS011;33020;53.008;13.558;2023-04-01T07:25:52;6.43;;;4.03;;
47287;SDS011;33020;53.008;13.558;2023-04-01T07:28:21;7.40;;;4.40;;
47287;SDS011;33020;53.008;13.558;2023-04-01T07:30:57;6.57;;;3.63;;
47287;SDS011;33020;53.008;13.558;2023-04-01T07:33:39;7.83;;;3.87;;
47287;SDS011;33020;53.008;13.558;2023-04-01T07:36:22;7.27;;;4.40;;
47287;SDS011;33020;53.008;13.558;2023-04-01T07:41:48;6.67;;;4.37;;
47287;SDS011;33020;53.008;13.558;2023-04-01T07:44:24;6.20;;;3.77;;
47287;SDS011;33020;53.008;13.558;2023-04-01T07:47:15;7.37;;;3.73;;
47287;SDS011;33020;53.008;13.558;2023-04-01T07:49:57;5.70;;;3.50;;
47287;SDS011;33020;53.008;13.558;2023-04-01T07:52:34;6.43;;;3.70;;
47287;SDS011;33020;53.008;13.558;2023-04-01T07:57:39;6.33;;;4.20;;
47287;SDS011;33020;53.008;13.558;2023-04-01T08:06:17;6.90;;;4.83;;
47287;SDS011;33020;53.008;13.558;2023-04-01T08:11:32;7.60;;;4.67;;
47287;SDS011;33020;53.008;13.558;2023-04-01T08:19:44;7.30;;;4.70;;
47287;SDS011;33020;53.008;13.558;2023-04-01T08:22:23;7.20;;;5.10;;
47287;SDS011;33020;53.008;13.558;2023-04-01T08:24:54;7.50;;;4.53;;
47287;SDS011;33020;53.008;13.558;2023-04-01T08:32:43;6.53;;;4.80;;
47287;SDS011;33020;53.008;13.558;2023-04-01T08:37:42;6.10;;;3.67;;
47287;SDS011;33020;53.008;13.558;2023-04-01T08:40:28;5.43;;;4.37;;
47287;SDS011;33020;53.008;13.558;2023-04-01T08:43:09;6.83;;;3.97;;
47287;SDS011;33020;53.008;13.558;2023-04-01T08:45:48;6.00;;;4.00;;
47287;SDS011;33020;53.008;13.558;2023-04-01T08:54:09;4.43;;;2.97;;
47287;SDS011;33020;53.008;13.558;2023-04-01T08:59:50;3.57;;;3.10;;
47287;SDS011;33020;53.008;13.558;2023-04-01T09:05:36;4.97;;;3.53;;
47287;SDS011;33020;53.008;13.558;2023-04-01T09:08:31;5.90;;;3.30;;
47287;SDS011;33020;53.008;13.558;2023-04-01T09:19:46;4.67;;;3.47;;
47287;SDS011;33020;53.008;13.558;2023-04-01T09:25:22;4.53;;;3.37;;
47287;SDS011;33020;53.008;13.558;2023-04-01T09:27:57;5.87;;;3.43;;
47287;SDS011;33020;53.008;13.558;2023-04-01T09:30:52;6.15;;;3.47;;
47287;SDS011;33020;53.008;13.558;2023-04-01T09:44:47;6.50;;;3.93;;
47287;SDS011;33020;53.008;13.558;2023-04-01T09:50:44;5.60;;;4.10;;
47287;SDS011;33020;53.008;13.558;2023-04-01T10:07:51;6.25;;;4.07;;
47287;SDS011;33020;53.008;13.558;2023-04-01T10:16:34;7.33;;;4.17;;
47287;SDS011;33020;53.008;13.558;2023-04-01T10:19:19;6.60;;;4.83;;
47287;SDS011;33020;53.008;13.558;2023-04-01T10:24:48;8.20;;;5.13;;
47287;SDS011;33020;53.008;13.558;2023-04-01T10:30:30;6.60;;;4.57;;
47287;SDS011;33020;53.008;13.558;2023-04-01T10:36:29;7.40;;;5.18;;
47287;SDS011;33020;53.008;13.558;2023-04-01T10:50:35;8.50;;;5.83;;
47287;SDS011;33020;53.008;13.558;2023-04-01T10:53:32;10.77;;;5.90;;
47287;SDS011;33020;53.008;13.558;2023-04-01T11:04:53;7.27;;;5.37;;
47287;SDS011;33020;53.008;13.558;2023-04-01T11:07:51;8.90;;;6.37;;
47287;SDS011;33020;53.008;13.558;2023-04-01T11:10:49;6.97;;;5.00;;
47287;SDS011;33020;53.008;13.558;2023-04-01T11:19:13;7.20;;;5.03;;
47287;SDS011;33020;53.008;13.558;2023-04-01T11:30:27;7.30;;;3.97;;
47287;SDS011;33020;53.008;13.558;2023-04-01T11:33:26;6.03;;;4.07;;
47287;SDS011;33020;53.008;13.558;2023-04-01T11:41:20;5.90;;;3.97;;
47287;SDS011;33020;53.008;13.558;2023-04-01T11:44:03;5.13;;;3.70;;
47287;SDS011;33020;53.008;13.558;2023-04-01T11:49:40;5.30;;;4.07;;
47287;SDS011;33020;53.008;13.558;2023-04-01T11:52:35;4.57;;;3.70;;
47287;SDS011;33020;53.008;13.558;2023-04-01T11:55:19;4.60;;;3.40;;
47287;SDS011;33020;53.008;13.558;2023-04-01T12:14:54;6.30;;;4.47;;
47287;SDS011;33020;53.008;13.558;2023-04-01T12:17:28;4.27;;;3.17;;
47287;SDS011;33020;53.008;13.558;2023-04-01T12:26:06;5.63;;;3.80;;
47287;SDS011;33020;53.008;13.558;2023-04-01T12:37:21;5.17;;;3.07;;
47287;SDS011;33020;53.008;13.558;2023-04-01T12:42:43;5.20;;;3.00;;
47287;SDS011;33020;53.008;13.558;2023-04-01T12:45:30;5.30;;;3.60;;
47287;SDS011;33020;53.008;13.558;2023-04-01T12:48:02;5.23;;;3.27;;
47287;SDS011;33020;53.008;13.558;2023-04-01T12:56:42;8.13;;;5.07;;
47287;SDS011;33020;53.008;13.558;2023-04-01T13:13:35;10.53;;;4.23;;
47287;SDS011;33020;53.008;13.558;2023-04-01T13:16:11;7.87;;;3.93;;
47287;SDS011;33020;53.008;13.558;2023-04-01T13:18:55;7.20;;;3.77;;
47287;SDS011;33020;53.008;13.558;2023-04-01T13:21:32;7.77;;;4.20;;
47287;SDS011;33020;53.008;13.558;2023-04-01T13:24:08;6.50;;;4.43;;
47287;SDS011;33020;53.008;13.558;2023-04-01T13:26:53;7.17;;;4.40;;
47287;SDS011;33020;53.008;13.558;2023-04-01T13:29:31;5.87;;;4.17;;
47287;SDS011;33020;53.008;13.558;2023-04-01T13:34:59;5.37;;;3.83;;
47287;SDS011;33020;53.008;13.558;2023-04-01T13:40:23;6.00;;;3.90;;
47287;SDS011;33020;53.008;13.558;2023-04-01T13:43:04;5.73;;;4.00;;
47287;SDS011;33020;53.008;13.558;2023-04-01T13:48:45;4.67;;;3.20;;
47287;SDS011;33020;53.008;13.558;2023-04-01T13:54:10;5.13;;;3.40;;
47287;SDS011;33020;53.008;13.558;2023-04-01T13:59:49;4.43;;;2.77;;
47287;SDS011;33020;53.008;13.558;2023-04-01T14:08:17;5.18;;;3.30;;
47287;SDS011;33020;53.008;13.558;2023-04-01T14:13:34;5.10;;;3.43;;
47287;SDS011;33020;53.008;13.558;2023-04-01T14:16:38;5.20;;;3.20;;
47287;SDS011;33020;53.008;13.558;2023-04-01T14:22:18;6.07;;;3.83;;
47287;SDS011;33020;53.008;13.558;2023-04-01T14:32:51;5.70;;;3.27;;
47287;SDS011;33020;53.008;13.558;2023-04-01T14:40:52;4.50;;;2.60;;
47287;SDS011;33020;53.008;13.558;2023-04-01T14:46:23;4.50;;;2.73;;
47287;SDS011;33020;53.008;13.558;2023-04-01T14:48:58;4.93;;;2.50;;
47287;SDS011;33020;53.008;13.558;2023-04-01T14:51:33;6.70;;;2.70;;
47287;SDS011;33020;53.008;13.558;2023-04-01T14:54:05;4.67;;;2.53;;
47287;SDS011;33020;53.008;13.558;2023-04-01T14:56:38;7.53;;;4.53;;
47287;SDS011;33020;53.008;13.558;2023-04-01T15:01:50;4.70;;;2.53;;
47287;SDS011;33020;53.008;13.558;2023-04-01T15:16:08;4.40;;;2.60;;
47287;SDS011;33020;53.008;13.558;2023-04-01T15:18:46;4.67;;;2.80;;
47287;SDS011;33020;53.008;13.558;2023-04-01T15:24:21;4.30;;;2.40;;
47287;SDS011;33020;53.008;13.558;2023-04-01T15:26:54;5.70;;;2.53;;
47287;SDS011;33020;53.008;13.558;2023-04-01T15:29:43;4.30;;;2.57;;
47287;SDS011;33020;53.008;13.558;2023-04-01T15:32:23;8.10;;;2.60;;
47287;SDS011;33020;53.008;13.558;2023-04-01T15:35:26;4.50;;;3.00;;
47287;SDS011;33020;53.008;13.558;2023-04-01T15:43:53;5.00;;;3.17;;
47287;SDS011;33020;53.008;13.558;2023-04-01T15:49:25;7.03;;;4.13;;
47287;SDS011;33020;53.008;13.558;2023-04-01T15:52:10;5.73;;;3.23;;
47287;SDS011;33020;53.008;13.558;2023-04-01T16:03:09;6.73;;;3.80;;
47287;SDS011;33020;53.008;13.558;2023-04-01T16:05:39;5.97;;;3.90;;
47287;SDS011;33020;53.008;13.558;2023-04-01T16:08:54;6.03;;;3.72;;
47287;SDS011;33020;53.008;13.558;2023-04-01T16:14:28;7.43;;;4.50;;
47287;SDS011;33020;53.008;13.558;2023-04-01T16:17:05;7.23;;;4.00;;
47287;SDS011;33020;53.008;13.558;2023-04-01T16:22:35;7.07;;;4.30;;
47287;SDS011;33020;53.008;13.558;2023-04-01T16:30:55;7.20;;;4.37;;
47287;SDS011;33020;53.008;13.558;2023-04-01T16:39:02;11.57;;;5.77;;
47287;SDS011;33020;53.008;13.558;2023-04-01T16:41:36;10.45;;;5.18;;
47287;SDS011;33020;53.008;13.558;2023-04-01T16:44:13;7.93;;;5.27;;
47287;SDS011;33020;53.008;13.558;2023-04-01T16:46:52;8.32;;;5.85;;
47287;SDS011;33020;53.008;13.558;2023-04-01T16:49:24;9.20;;;5.30;;
47287;SDS011;33020;53.008;13.558;2023-04-01T16:51:57;10.80;;;6.57;;
47287;SDS011;33020;53.008;13.558;2023-04-01T16:54:40;13.00;;;5.90;;
47287;SDS011;33020;53.008;13.558;2023-04-01T16:57:28;10.27;;;6.10;;
47287;SDS011;33020;53.008;13.558;2023-04-01T17:00:09;10.07;;;5.73;;
47287;SDS011;33020;53.008;13.558;2023-04-01T17:03:16;9.47;;;5.87;;
47287;SDS011;33020;53.008;13.558;2023-04-01T17:08:36;10.93;;;6.10;;
47287;SDS011;33020;53.008;13.558;2023-04-01T17:11:12;9.20;;;5.67;;
47287;SDS011;33020;53.008;13.558;2023-04-01T17:13:51;9.47;;;5.63;;
47287;SDS011;33020;53.008;13.558;2023-04-01T17:35:59;9.27;;;5.47;;
47287;SDS011;33020;53.008;13.558;2023-04-01T17:50:22;16.08;;;6.57;;
47287;SDS011;33020;53.008;13.558;2023-04-01T17:52:58;9.57;;;4.50;;
47287;SDS011;33020;53.008;13.558;2023-04-01T18:03:57;10.73;;;5.77;;
47287;SDS011;33020;53.008;13.558;2023-04-01T18:12:15;8.83;;;5.47;;
47287;SDS011;33020;53.008;13.558;2023-04-01T18:15:10;10.10;;;5.13;;
47287;SDS011;33020;53.008;13.558;2023-04-01T18:18:08;11.03;;;6.40;;
47287;SDS011;33020;53.008;13.558;2023-04-01T18:23:41;8.53;;;5.40;;
47287;SDS011;33020;53.008;13.558;2023-04-01T18:26:28;10.80;;;5.27;;
47287;SDS011;33020;53.008;13.558;2023-04-01T18:28:59;10.43;;;5.07;;
47287;SDS011;33020;53.008;13.558;2023-04-01T18:31:42;9.20;;;5.13;;
47287;SDS011;33020;53.008;13.558;2023-04-01T18:36:55;11.63;;;5.00;;
47287;SDS011;33020;53.008;13.558;2023-04-01T18:39:33;7.73;;;4.80;;
47287;SDS011;33020;53.008;13.558;2023-04-01T18:42:16;9.83;;;5.30;;
47287;SDS011;33020;53.008;13.558;2023-04-01T18:52:47;9.03;;;5.30;;
47287;SDS011;33020;53.008;13.558;2023-04-01T18:55:34;8.00;;;4.90;;
47287;SDS011;33020;53.008;13.558;2023-04-01T19:01:04;11.67;;;5.73;;
47287;SDS011;33020;53.008;13.558;2023-04-01T19:03:41;12.48;;;6.25;;
47287;SDS011;33020;53.008;13.558;2023-04-01T19:06:16;6.07;;;4.53;;
47287;SDS011;33020;53.008;13.558;2023-04-01T19:08:46;8.43;;;5.57;;
47287;SDS011;33020;53.008;13.558;2023-04-01T19:16:53;10.57;;;6.10;;
47287;SDS011;33020;53.008;13.558;2023-04-01T19:19:29;10.73;;;6.30;;
47287;SDS011;33020;53.008;13.558;2023-04-01T19:22:21;10.87;;;6.60;;
47287;SDS011;33020;53.008;13.558;2023-04-01T19:25:37;10.23;;;6.40;;
47287;SDS011;33020;53.008;13.558;2023-04-01T19:28:26;11.17;;;5.83;;
47287;SDS011;33020;53.008;13.558;2023-04-01T19:31:02;8.27;;;5.30;;
47287;SDS011;33020;53.008;13.558;2023-04-01T19:33:49;7.30;;;5.33;;
47287;SDS011;33020;53.008;13.558;2023-04-01T19:36:31;10.98;;;5.90;;
47287;SDS011;33020;53.008;13.558;2023-04-01T19:41:56;8.47;;;5.10;;
47287;SDS011;33020;53.008;13.558;2023-04-01T19:47:36;11.23;;;5.50;;
47287;SDS011;33020;53.008;13.558;2023-04-01T19:50:20;8.80;;;5.57;;
47287;SDS011;33020;53.008;13.558;2023-04-01T19:53:06;7.83;;;5.03;;
47287;SDS011;33020;53.008;13.558;2023-04-01T20:00:58;7.07;;;4.80;;
47287;SDS011;33020;53.008;13.558;2023-04-01T20:06:38;7.90;;;4.80;;
47287;SDS011;33020;53.008;13.558;2023-04-01T20:12:11;6.80;;;4.10;;
47287;SDS011;33020;53.008;13.558;2023-04-01T20:15:03;8.90;;;4.53;;
47287;SDS011;33020;53.008;13.558;2023-04-01T20:25:14;8.57;;;4.00;;
47287;SDS011;33020;53.008;13.558;2023-04-01T20:27:45;7.07;;;3.90;;
47287;SDS011;33020;53.008;13.558;2023-04-01T20:35:44;6.67;;;4.60;;
47287;SDS011;33020;53.008;13.558;2023-04-01T20:38:40;6.10;;;4.03;;
47287;SDS011;33020;53.008;13.558;2023-04-01T20:44:13;7.73;;;4.33;;
47287;SDS011;33020;53.008;13.558;2023-04-01T20:49:24;9.40;;;3.70;;
47287;SDS011;33020;53.008;13.558;2023-04-01T20:57:53;7.07;;;3.50;;
47287;SDS011;33020;53.008;13.558;2023-04-01T21:00:31;5.93;;;3.43;;
47287;SDS011;33020;53.008;13.558;2023-04-01T21:08:19;6.60;;;4.17;;
47287;SDS011;33020;53.008;13.558;2023-04-01T21:19:30;7.73;;;4.00;;
47287;SDS011;33020;53.008;13.558;2023-04-01T21:24:49;4.53;;;3.30;;
47287;SDS011;33020;53.008;13.558;2023-04-01T21:27:33;6.30;;;3.10;;
47287;SDS011;33020;53.008;13.558;2023-04-01T21:33:30;6.25;;;3.97;;
47287;SDS011;33020;53.008;13.558;2023-04-01T21:47:15;5.40;;;3.47;;
47287;SDS011;33020;53.008;13.558;2023-04-01T21:53:49;5.80;;;2.93;;
47287;SDS011;33020;53.008;13.558;2023-04-01T21:58:53;3.83;;;2.67;;
47287;SDS011;33020;53.008;13.558;2023-04-01T22:09:46;5.47;;;3.40;;
47287;SDS011;33020;53.008;13.558;2023-04-01T22:12:35;5.03;;;3.57;;
47287;SDS011;33020;53.008;13.558;2023-04-01T22:15:45;6.65;;;2.80;;
47287;SDS011;33020;53.008;13.558;2023-04-01T22:18:34;5.23;;;2.80;;
47287;SDS011;33020;53.008;13.558;2023-04-01T22:29:06;5.60;;;3.23;;
47287;SDS011;33020;53.008;13.558;2023-04-01T22:31:40;5.97;;;3.47;;
47287;SDS011;33020;53.008;13.558;2023-04-01T22:37:22;5.07;;;3.17;;
47287;SDS011;33020;53.008;13.558;2023-04-01T22:39:58;6.60;;;3.43;;
47287;SDS011;33020;53.008;13.558;2023-04-01T22:42:44;4.73;;;3.00;;
47287;SDS011;33020;53.008;13.558;2023-04-01T22:45:21;6.63;;;3.30;;
47287;SDS011;33020;53.008;13.558;2023-04-01T22:50:44;4.50;;;2.77;;
47287;SDS011;33020;53.008;13.558;2023-04-01T22:55:59;6.63;;;3.30;;
47287;SDS011;33020;53.008;13.558;2023-04-01T22:58:33;7.50;;;4.27;;
47287;SDS011;33020;53.008;13.558;2023-04-01T23:03:32;7.17;;;3.83;;
47287;SDS011;33020;53.008;13.558;2023-04-01T23:06:06;4.77;;;2.80;;
47287;SDS011;33020;53.008;13.558;2023-04-01T23:11:32;4.57;;;2.70;;
47287;SDS011;33020;53.008;13.558;2023-04-01T23:17:09;6.43;;;3.13;;
47287;SDS011;33020;53.008;13.558;2023-04-01T23:19:54;9.30;;;2.80;;
47287;SDS011;33020;53.008;13.558;2023-04-01T23:24:59;4.40;;;2.60;;
47287;SDS011;33020;53.008;13.558;2023-04-01T23:33:30;6.55;;;3.25;;
47287;SDS011;33020;53.008;13.558;2023-04-01T23:36:10;6.13;;;2.77;;
47287;SDS011;33020;53.008;13.558;2023-04-01T23:38:39;4.27;;;2.63;;
47287;SDS011;33020;53.008;13.558;2023-04-01T23:41:09;5.50;;;2.47;;
47287;SDS011;33020;53.008;13.558;2023-04-01T23:43:43;4.37;;;2.73;;
47287;SDS011;33020;53.008;13.558;2023-04-01T23:46:11;5.43;;;2.80;;
47287;SDS011;33020;53.008;13.558;2023-04-01T23:48:40;6.23;;;2.57;;
47287;SDS011;33020;53.008;13.558;2023-04-01T23:51:17;3.67;;;2.47;;
47287;SDS011;33020;53.008;13.558;2023-04-01T23:53:59;6.03;;;2.50;;
47287;SDS011;33020;53.008;13.558;2023-04-01T23:56:34;8.37;;;2.63;;
47287;SDS011;33020;53.008;13.558;2023-04-01T23:59:02;6.07;;;3.00;;
